Yuanping, China
Current Conditions -  °F | °C
As of 3:00 AM on Saturday 01 Nov 2014 (Local Time) from ZBYN Reporting Station
Clear Clear  
Wind Chill: 41°   Ceiling: Unl
Heat Index: 41°   Visibility: 4mi
Dew Point: 37°   Wind: 2mph
Humidity: 87%   Direction: 50°NE
Pressure: 30.18"   Gusts: NA
Location:  38.73°N, 112.72°E
Report Text: ZBYN 311900Z 05001MPS 6000 NSC 05/03 Q1022 NOSIG
Loading
Personal Weather Stations






























Interactive Weather Map
Tropical Storm Tracking
New forecast layout! Learn more

10-Day Weather Forecast

Advertisements
Track Severe Weather on mobile